X  CloseMetar Aviation Weather Data     EBBR Brussels

Temperature

6°C Temperature

4°C Dewpoint

87% Humidity



Wind

 2 KM/H

 1 MPH

 0 M/S

 1 KTS



Calm
Due North
Current Conditions

Partly Cloudy Partly Cloudy
Pressure 1026.92 (hPa) - 30.32 (in)
Visibility 6.2 (mi) - 10 (km)
Airport
Airport-code EBBR

Location Brussels 14 (km)

Metar:
EBBR 180450Z VRB01KT 9999 FEW048 06/04 Q1027 NOSIG

Time: 18-09-2019 06:50